Time;durP1;ratioP1;P1;durP2;ratioP2;P2;SDS_P1;SDS_P2;PMS_P1;PMS_P2;Temp;Humidity;BMP_temperature;BMP_pressure;BME280_temperature;BME280_humidity;BME280_pressure;Samples;Min_cycle;Max_cycle;Signal;HPM_P1;HPM_P2
2022/08/16 00:02:17;;;;;;;0.63;0.60;;;;;;;22.89;51.52;96057.28;10329343;28;20026;-29
2022/08/16 00:07:18;;;;;;;1.27;1.17;;;;;;;22.79;52.00;96055.03;10328930;28;20130;-30
2022/08/16 00:12:18;;;;;;;1.33;1.23;;;;;;;22.71;52.15;96052.69;10331230;28;20070;-30
2022/08/16 00:17:19;;;;;;;1.67;1.33;;;;;;;22.69;52.04;96059.56;10330033;28;20038;-29
2022/08/16 00:22:20;;;;;;;2.00;1.80;;;;;;;22.66;52.33;96051.16;10329268;28;20034;-29
2022/08/16 00:27:21;;;;;;;1.52;1.15;;;;;;;22.65;51.91;96062.25;10323106;28;20190;-28
2022/08/16 00:32:21;;;;;;;1.50;1.40;;;;;;;22.65;52.28;96062.25;10325079;28;20409;-29
2022/08/16 00:37:24;;;;;;;1.50;1.40;;;;;;;22.64;51.82;96063.94;10326971;28;20057;-29
2022/08/16 00:42:29;;;;;;;0.90;0.90;;;;;;;22.79;52.11;96058.44;10330560;28;20030;-29
2022/08/16 00:47:30;;;;;;;0.90;0.90;;;;;;;22.89;51.51;96056.47;10326821;28;20044;-29
2022/08/16 00:52:31;;;;;;;0.68;0.68;;;;;;;22.73;51.83;96057.78;10328176;28;20041;-29
2022/08/16 00:57:31;;;;;;;1.13;1.03;;;;;;;22.65;51.82;96057.97;10328061;28;20034;-29
2022/08/16 01:02:31;;;;;;;1.40;1.30;;;;;;;22.65;51.98;96055.41;10324595;28;20528;-29
2022/08/16 01:07:33;;;;;;;1.33;1.23;;;;;;;22.67;52.05;96047.72;10325399;28;20034;-29
2022/08/16 01:12:34;;;;;;;1.20;1.13;;;;;;;22.60;51.88;96056.41;10326528;28;20528;-30
2022/08/16 01:17:34;;;;;;;1.37;1.27;;;;;;;22.54;51.82;96049.78;10323687;28;20113;-30
2022/08/16 01:23:06;;;;;;;1.88;1.42;;;;;;;22.58;52.08;96050.53;10325270;28;20030;-29
2022/08/16 01:28:12;;;;;;;1.23;1.13;;;;;;;22.77;52.17;96060.19;10323316;28;20078;-29
2022/08/16 01:33:12;;;;;;;1.10;0.85;;;;;;;22.82;51.79;96063.44;10324016;28;20100;-29
2022/08/16 01:38:18;;;;;;;1.58;1.10;;;;;;;22.71;51.93;96060.34;10325173;28;20049;-30
2022/08/16 01:43:20;;;;;;;1.20;1.10;;;;;;;22.67;51.74;96063.88;10326740;28;20034;-29
2022/08/16 01:48:27;;;;;;;1.65;1.55;;;;;;;22.61;51.85;96050.44;10323779;28;20059;-29
2022/08/16 01:53:29;;;;;;;1.33;1.23;;;;;;;22.60;51.87;96052.16;10324134;28;20490;-29
2022/08/16 01:58:38;;;;;;;1.60;1.30;;;;;;;22.54;51.96;96049.78;10325657;28;20068;-30
2022/08/16 02:03:39;;;;;;;1.13;1.05;;;;;;;22.56;51.98;96065.88;10325081;28;20030;-29
2022/08/16 02:08:40;;;;;;;1.27;1.17;;;;;;;22.55;52.35;96054.00;10322913;28;20092;-29
2022/08/16 02:13:41;;;;;;;1.48;1.38;;;;;;;22.78;52.24;96061.03;10327242;28;20044;-30
2022/08/16 02:18:44;;;;;;;0.80;0.80;;;;;;;22.82;51.79;96060.06;10320793;28;20038;-28
2022/08/16 02:23:44;;;;;;;0.90;0.88;;;;;;;22.67;51.80;96063.88;10323454;28;20085;-29
2022/08/16 02:28:45;;;;;;;2.25;2.05;;;;;;;22.55;51.87;96040.41;10322241;28;20030;-29
2022/08/16 02:33:48;;;;;;;1.40;1.30;;;;;;;22.57;51.87;96038.66;10323675;28;20035;-29
2022/08/16 02:39:04;;;;;;;1.60;1.50;;;;;;;22.61;51.86;96051.28;10322252;28;20030;-31
2022/08/16 02:44:07;;;;;;;1.73;1.63;;;;;;;22.63;52.24;96051.22;10324346;28;20032;-29
2022/08/16 02:49:09;;;;;;;1.42;1.33;;;;;;;22.62;51.80;96042.75;10322955;28;20233;-29
2022/08/16 02:54:12;;;;;;;1.80;1.65;;;;;;;22.64;52.78;96042.72;10322263;28;20045;-29
2022/08/16 02:59:13;;;;;;;1.30;1.20;;;;;;;22.79;52.18;96038.03;10323630;28;20100;-28
2022/08/16 03:04:13;;;;;;;0.70;0.70;;;;;;;22.80;51.69;96038.84;10322628;28;20452;-29
2022/08/16 03:09:14;;;;;;;1.10;1.00;;;;;;;22.66;51.82;96031.56;10320707;28;20026;-29
2022/08/16 03:14:17;;;;;;;1.80;1.10;;;;;;;22.64;51.73;96033.31;10324766;28;20034;-29
2022/08/16 03:19:19;;;;;;;1.40;1.20;;;;;;;22.62;52.06;96024.88;10321740;28;20054;-29
2022/08/16 03:24:19;;;;;;;1.70;1.60;;;;;;;22.62;52.23;96017.22;10320635;28;20038;-29
2022/08/16 03:29:20;;;;;;;1.48;1.38;;;;;;;22.57;52.02;96003.75;10316219;28;20042;-29
2022/08/16 03:34:21;;;;;;;1.45;1.35;;;;;;;22.62;51.99;96014.69;10322757;28;20527;-28
2022/08/16 03:39:22;;;;;;;1.85;1.40;;;;;;;22.60;52.43;96015.59;10321142;28;20062;-29
2022/08/16 03:44:23;;;;;;;1.08;1.00;;;;;;;22.79;52.16;96012.50;10323143;28;20030;-29
2022/08/16 03:49:23;;;;;;;0.88;0.80;;;;;;;22.76;51.73;96010.03;10322933;28;20420;-29
2022/08/16 03:54:27;;;;;;;1.98;1.30;;;;;;;22.68;51.89;96011.97;10331818;28;20034;-29
2022/08/16 03:59:29;;;;;;;1.60;1.50;;;;;;;22.68;52.08;96011.13;10320279;28;20105;-28
2022/08/16 04:04:31;;;;;;;1.67;1.58;;;;;;;22.65;52.02;96012.03;10321847;28;20030;-29
2022/08/16 04:09:33;;;;;;;1.88;1.63;;;;;;;22.61;51.96;96002.81;10320803;28;20066;-29
2022/08/16 04:14:34;;;;;;;1.45;1.35;;;;;;;22.64;51.90;96001.88;10321815;28;20042;-29
2022/08/16 04:19:36;;;;;;;3.10;1.67;;;;;;;22.62;52.00;96007.03;10317684;28;20049;-31
2022/08/16 04:24:36;;;;;;;2.90;1.50;;;;;;;22.65;52.71;96004.38;10321454;28;20018;-33
2022/08/16 04:29:37;;;;;;;1.33;1.23;;;;;;;22.82;51.94;96009.84;10316895;28;20795;-30
2022/08/16 04:34:38;;;;;;;0.77;0.70;;;;;;;22.80;51.73;96014.16;10322037;28;20385;-29
2022/08/16 04:39:39;;;;;;;1.20;1.10;;;;;;;22.67;51.71;96017.94;10322132;28;20045;-29
2022/08/16 04:44:39;;;;;;;1.40;1.30;;;;;;;22.65;51.89;96017.13;10330345;28;20036;-29
2022/08/16 04:49:40;;;;;;;1.55;1.45;;;;;;;22.62;51.93;96014.69;10329901;28;20026;-29
2022/08/16 04:54:41;;;;;;;1.73;1.42;;;;;;;22.59;51.83;96022.44;10329893;28;20045;-29
2022/08/16 04:59:42;;;;;;;1.60;1.50;;;;;;;22.60;52.06;96023.25;10328352;28;20041;-29
2022/08/16 05:04:42;;;;;;;2.30;1.70;;;;;;;22.55;52.00;96005.50;10328444;28;20038;-29
2022/08/16 05:09:43;;;;;;;1.70;1.60;;;;;;;22.61;52.37;96023.22;10327504;28;20664;-29
2022/08/16 05:14:44;;;;;;;1.03;1.03;;;;;;;22.79;51.92;96026.97;10325057;28;20563;-30
2022/08/16 05:19:44;;;;;;;0.98;0.90;;;;;;;22.77;51.66;96034.69;10327306;28;20057;-29
2022/08/16 05:24:49;;;;;;;1.33;1.20;;;;;;;22.68;51.92;96032.38;10326569;28;20526;-29
2022/08/16 05:29:49;;;;;;;1.70;1.60;;;;;;;22.55;51.87;96031.03;10322671;28;20044;-29
2022/08/16 05:34:54;;;;;;;2.08;1.80;;;;;;;22.57;51.82;96034.38;10326639;28;20031;-29
2022/08/16 05:39:54;;;;;;;1.15;1.08;;;;;;;22.60;52.13;96030.91;10325537;28;20117;-29
2022/08/16 05:44:55;;;;;;;1.43;1.33;;;;;;;22.57;51.96;96039.47;10323539;28;20022;-29
2022/08/16 05:49:55;;;;;;;1.58;1.48;;;;;;;22.62;51.94;96040.19;10327418;28;20038;-29
2022/08/16 05:54:56;;;;;;;1.65;1.55;;;;;;;22.63;52.38;96046.97;10324793;28;20511;-31
2022/08/16 05:59:56;;;;;;;1.40;1.30;;;;;;;22.81;52.35;96050.75;10326001;28;20370;-29
2022/08/16 06:04:57;;;;;;;1.00;0.88;;;;;;;22.80;51.71;96037.13;10324817;28;20289;-29
2022/08/16 06:09:59;;;;;;;1.60;1.50;;;;;;;22.73;51.82;96037.34;10324456;28;20121;-30
2022/08/16 06:15:04;;;;;;;1.35;1.25;;;;;;;22.71;51.89;96045.03;10323902;28;20062;-28
2022/08/16 06:20:05;;;;;;;1.77;1.63;;;;;;;22.66;51.78;96046.06;10322469;28;20050;-29
2022/08/16 06:25:06;;;;;;;1.70;1.60;;;;;;;22.61;51.94;96048.72;10331442;28;20540;-29
2022/08/16 06:30:10;;;;;;;2.15;1.73;;;;;;;22.58;52.03;96045.41;10336097;28;20038;-29
2022/08/16 06:35:10;;;;;;;1.67;1.58;;;;;;;22.60;52.12;96041.97;10324269;28;20062;-29
2022/08/16 06:40:12;;;;;;;1.60;1.50;;;;;;;22.63;52.37;96046.13;10322609;28;20030;-30
2022/08/16 06:45:17;;;;;;;1.20;1.10;;;;;;;22.77;51.81;96044.88;10324348;28;20636;-30
2022/08/16 06:50:23;;;;;;;1.33;1.23;;;;;;;22.77;51.74;96042.34;10323063;28;20041;-28
2022/08/16 06:55:24;;;;;;;1.38;1.27;;;;;;;22.66;51.77;96041.78;10322927;28;20118;-29
2022/08/16 07:00:28;;;;;;;1.65;1.52;;;;;;;22.61;51.85;96043.63;10323764;28;20065;-29
2022/08/16 07:05:40;;;;;;;2.58;1.50;;;;;;;22.57;51.94;96049.69;10319923;28;20524;-29
2022/08/16 07:10:57;;;;;;;1.58;1.48;;;;;;;22.56;51.87;96042.09;10321297;28;20400;-29
2022/08/16 07:15:59;;;;;;;1.50;1.40;;;;;;;22.53;51.90;96048.09;10323070;28;20658;-29
2022/08/16 07:21:02;;;;;;;1.40;1.30;;;;;;;22.54;51.93;96049.78;10322853;28;20452;-29
2022/08/16 07:26:05;;;;;;;1.40;1.23;;;;;;;22.60;52.39;96041.09;10319655;28;20026;-30
2022/08/16 07:31:06;;;;;;;1.25;1.15;;;;;;;22.79;51.83;96045.69;10318518;28;20034;-28
2022/08/16 07:36:13;;;;;;;1.25;0.80;;;;;;;22.72;51.56;96046.72;10323097;28;20034;-30
2022/08/16 07:41:18;;;;;;;1.27;1.17;;;;;;;22.61;51.72;96033.41;10322619;28;20040;-29
2022/08/16 07:46:22;;;;;;;1.08;0.98;;;;;;;22.54;51.83;96031.06;10320666;28;20065;-29
2022/08/16 07:51:23;;;;;;;1.38;1.27;;;;;;;22.54;51.88;96031.06;10322225;28;20109;-29
2022/08/16 07:56:24;;;;;;;1.48;1.38;;;;;;;22.51;51.93;96032.00;10337341;28;20061;-30
2022/08/16 08:01:25;;;;;;;1.30;1.20;;;;;;;22.49;52.02;96032.91;10322569;28;20065;-29
2022/08/16 08:06:34;;;;;;;1.08;1.00;;;;;;;22.51;51.98;96042.19;10320234;28;20471;-29
2022/08/16 08:11:41;;;;;;;0.95;0.95;;;;;;;22.61;52.18;96047.88;10322146;28;20034;-29
2022/08/16 08:16:43;;;;;;;1.00;1.00;;;;;;;22.79;51.96;96048.22;10323623;28;20054;-30
2022/08/16 08:21:47;;;;;;;0.80;0.80;;;;;;;22.68;51.64;96055.34;10327924;28;20031;-30
2022/08/16 08:26:48;;;;;;;1.73;1.63;;;;;;;22.61;51.96;96048.72;10324517;28;20030;-31
2022/08/16 08:31:48;;;;;;;3.05;2.85;;;;;;;22.55;52.06;96054.00;10326195;28;20038;-29
2022/08/16 08:36:49;;;;;;;1.55;1.45;;;;;;;22.53;51.98;96063.41;10326985;28;20113;-29
2022/08/16 08:42:01;;;;;;;1.52;1.42;;;;;;;22.51;52.01;96057.50;10329513;28;20023;-29
2022/08/16 08:47:05;;;;;;;1.40;1.30;;;;;;;22.52;51.88;96064.28;10328048;28;20489;-29
2022/08/16 08:52:06;;;;;;;1.55;1.45;;;;;;;22.50;51.88;96066.00;10326787;28;20085;-29
2022/08/16 08:57:07;;;;;;;1.10;1.00;;;;;;;22.64;52.03;96069.06;10329274;28;20120;-29
2022/08/16 09:02:13;;;;;;;1.20;1.10;;;;;;;22.81;51.73;96074.53;10322813;28;20026;-28
2022/08/16 09:07:20;;;;;;;1.20;0.98;;;;;;;22.70;51.80;96070.59;10325587;28;20097;-30
2022/08/16 09:12:21;;;;;;;1.55;1.20;;;;;;;22.66;52.02;96072.41;10327920;28;20049;-30
2022/08/16 09:17:27;;;;;;;1.33;1.25;;;;;;;22.51;51.69;96052.41;10325726;28;20061;-29
2022/08/16 09:22:28;;;;;;;1.50;1.40;;;;;;;22.58;51.92;96083.69;10325489;28;20046;-29
2022/08/16 09:27:29;;;;;;;1.60;1.50;;;;;;;22.58;52.00;96079.41;10322132;28;20041;-29
2022/08/16 09:32:30;;;;;;;1.90;1.67;;;;;;;22.58;52.07;96079.41;10328191;28;20053;-29
2022/08/16 09:37:31;;;;;;;1.50;1.40;;;;;;;22.55;51.91;96079.50;10326658;28;20041;-29
2022/08/16 09:42:32;;;;;;;1.05;0.95;;;;;;;22.66;52.24;96072.41;10328557;28;20057;-29
2022/08/16 09:47:36;;;;;;;1.00;1.00;;;;;;;22.85;51.58;96077.84;10323982;28;20046;-29
2022/08/16 09:52:37;;;;;;;1.33;1.15;;;;;;;22.73;51.70;96078.19;10322619;28;20038;-29
2022/08/16 09:57:40;;;;;;;1.63;1.52;;;;;;;22.64;52.01;96074.16;10327245;28;20038;-29
2022/08/16 10:02:41;;;;;;;1.73;1.50;;;;;;;22.64;52.03;96070.78;10324870;28;20037;-29
2022/08/16 10:07:44;;;;;;;1.70;1.60;;;;;;;22.59;51.93;96070.91;10324529;28;20034;-29
2022/08/16 10:18:06;;;;;;;1.58;1.48;;;;;;;22.55;51.99;96079.50;10325739;28;20037;-29
2022/08/16 10:23:09;;;;;;;1.75;1.30;;;;;;;22.54;51.97;96072.72;10324126;28;20030;-29
2022/08/16 10:28:10;;;;;;;1.17;1.08;;;;;;;22.71;51.91;96073.13;10320643;28;20146;-30
2022/08/16 10:33:12;;;;;;;1.45;1.00;;;;;;;22.84;51.53;96071.94;10322419;28;20093;-29
2022/08/16 10:38:13;;;;;;;0.80;0.80;;;;;;;22.65;51.81;96075.00;10323733;28;20035;-30
2022/08/16 10:43:13;;;;;;;1.42;1.33;;;;;;;22.60;51.91;96067.47;10325668;28;20038;-30
2022/08/16 10:48:14;;;;;;;1.40;1.30;;;;;;;22.52;52.08;96063.44;10323809;28;20045;-29
2022/08/16 10:53:16;;;;;;;1.13;1.13;;;;;;;22.52;51.98;96069.38;10323775;28;20382;-29
2022/08/16 10:58:17;;;;;;;1.38;1.27;;;;;;;22.54;52.04;96075.28;10325107;28;20081;-29
2022/08/16 11:03:17;;;;;;;1.83;1.53;;;;;;;22.55;52.17;96071.03;10321855;28;20117;-29
2022/08/16 11:08:18;;;;;;;1.40;1.30;;;;;;;22.52;51.80;96066.84;10322588;28;20061;-29
2022/08/16 11:13:24;;;;;;;1.40;1.30;;;;;;;22.72;52.05;96061.22;10325032;28;20297;-29
2022/08/16 11:18:28;;;;;;;0.82;0.80;;;;;;;22.83;51.55;96065.13;10323173;28;20575;-30
2022/08/16 11:23:28;;;;;;;1.00;1.00;;;;;;;22.67;51.88;96063.88;10322584;28;20033;-29
2022/08/16 11:28:29;;;;;;;1.65;1.38;;;;;;;22.63;52.01;96072.47;10319343;28;20046;-29
2022/08/16 11:33:30;;;;;;;1.30;1.20;;;;;;;22.58;51.92;96061.53;10321755;28;20429;-28
2022/08/16 11:38:30;;;;;;;1.40;1.30;;;;;;;22.49;51.88;96059.25;10322474;28;20034;-29
2022/08/16 11:43:34;;;;;;;1.33;1.17;;;;;;;22.55;51.92;96054.00;10324216;28;20026;-29
2022/08/16 11:48:35;;;;;;;1.60;1.50;;;;;;;22.57;51.86;96049.69;10322670;28;20509;-29
2022/08/16 11:53:36;;;;;;;1.60;1.50;;;;;;;22.58;52.31;96053.91;10325990;28;20042;-29
2022/08/16 11:58:38;;;;;;;1.10;1.00;;;;;;;22.74;52.07;96050.06;10334056;28;20042;-28
2022/08/16 12:03:38;;;;;;;0.80;0.80;;;;;;;22.84;51.32;96056.59;10333755;28;20065;-29
2022/08/16 12:08:41;;;;;;;0.83;0.83;;;;;;;22.70;51.92;96052.72;10330877;28;20058;-29
2022/08/16 12:13:42;;;;;;;1.23;1.13;;;;;;;22.64;51.97;96048.63;10333760;28;20034;-28
2022/08/16 12:18:43;;;;;;;1.30;1.20;;;;;;;22.62;51.56;96042.75;10330069;28;20038;-28
2022/08/16 12:23:43;;;;;;;1.98;1.80;;;;;;;22.58;51.98;96040.31;10329756;28;20064;-29
2022/08/16 12:28:44;;;;;;;1.20;1.10;;;;;;;22.55;52.11;96033.56;10325489;28;20129;-30
2022/08/16 12:33:44;;;;;;;1.40;1.30;;;;;;;22.57;52.00;96042.03;10328516;28;20057;-29
2022/08/16 12:38:45;;;;;;;1.23;1.13;;;;;;;22.54;52.05;96039.56;10328753;28;20042;-29
2022/08/16 12:43:46;;;;;;;0.90;0.90;;;;;;;22.75;52.46;96045.81;10330742;28;20046;-29
2022/08/16 12:48:58;;;;;;;0.93;0.90;;;;;;;22.83;51.50;96037.03;10328951;28;20038;-30
2022/08/16 12:54:00;;;;;;;1.25;1.15;;;;;;;22.64;52.15;96030.78;10327914;28;20053;-29
2022/08/16 12:59:08;;;;;;;1.30;1.20;;;;;;;22.65;52.16;96031.63;10326023;28;20035;-29
2022/08/16 13:04:08;;;;;;;1.30;1.20;;;;;;;22.61;52.00;96033.41;10323420;28;20058;-29
2022/08/16 13:09:25;;;;;;;1.52;1.42;;;;;;;22.58;52.09;96030.94;10327090;28;20039;-28
2022/08/16 13:14:28;;;;;;;2.80;1.58;;;;;;;22.55;52.24;96028.47;10328125;28;20026;-29
2022/08/16 13:19:28;;;;;;;1.85;1.75;;;;;;;22.57;52.13;96031.81;10324912;28;20390;-30
2022/08/16 13:24:29;;;;;;;1.30;1.20;;;;;;;22.58;52.37;96032.66;10327312;28;20026;-29
2022/08/16 13:29:29;;;;;;;0.98;0.90;;;;;;;22.77;52.08;96037.22;10325709;28;20648;-30
2022/08/16 13:34:30;;;;;;;0.80;0.80;;;;;;;22.81;51.67;96038.81;10328042;28;20041;-30
2022/08/16 13:39:31;;;;;;;1.20;0.80;;;;;;;22.66;52.20;96029.00;10326301;28;20038;-30
2022/08/16 13:44:31;;;;;;;1.08;1.08;;;;;;;22.64;52.21;96029.97;10325925;28;20155;-29
2022/08/16 13:49:33;;;;;;;1.30;1.20;;;;;;;22.58;52.26;96023.28;10327794;28;20039;-29
2022/08/16 13:54:33;;;;;;;1.40;1.30;;;;;;;22.59;52.15;96027.53;10325865;28;20040;-29
2022/08/16 13:59:34;;;;;;;1.37;1.27;;;;;;;22.60;52.12;96026.66;10326663;28;20060;-29
2022/08/16 14:04:36;;;;;;;1.63;1.53;;;;;;;22.68;52.82;96014.53;10319537;28;20084;-29
2022/08/16 14:09:38;;;;;;;2.03;1.90;;;;;;;22.71;52.94;96008.47;10324617;28;20093;-28
2022/08/16 14:14:38;;;;;;;1.40;1.30;;;;;;;22.90;52.46;96015.56;10326226;28;20042;-29
2022/08/16 14:19:39;;;;;;;0.90;0.90;;;;;;;22.94;52.00;96006.13;10325715;28;20049;-29
2022/08/16 14:24:39;;;;;;;1.43;1.33;;;;;;;22.91;52.56;96004.47;10324984;28;20066;-29
2022/08/16 14:29:39;;;;;;;1.60;1.50;;;;;;;22.92;52.85;96008.69;10325872;28;20042;-29
2022/08/16 14:34:41;;;;;;;1.60;1.50;;;;;;;22.91;52.81;95999.38;10324804;28;20038;-29
2022/08/16 14:39:41;;;;;;;2.08;1.98;;;;;;;22.87;52.88;95991.84;10324283;28;20313;-29
2022/08/16 14:44:41;;;;;;;1.50;1.40;;;;;;;22.92;52.87;95998.50;10324962;28;20092;-31
2022/08/16 14:49:42;;;;;;;1.53;1.43;;;;;;;22.93;52.98;95989.97;10320568;28;20506;-29
2022/08/16 14:54:45;;;;;;;1.58;1.48;;;;;;;22.92;53.00;95985.72;10323243;28;20396;-30
2022/08/16 14:59:45;;;;;;;1.50;1.40;;;;;;;23.03;52.36;95991.38;10325095;28;20041;-29
2022/08/16 15:04:46;;;;;;;1.20;1.10;;;;;;;22.99;52.29;95992.31;10322210;28;20034;-29
2022/08/16 15:09:47;;;;;;;1.88;1.73;;;;;;;23.02;52.95;95983.75;10322894;28;20038;-29
2022/08/16 15:14:51;;;;;;;1.90;1.77;;;;;;;22.99;52.91;95989.78;10323221;28;20440;-30
2022/08/16 15:19:52;;;;;;;1.70;1.60;;;;;;;22.95;52.93;95982.25;10323166;28;20030;-29
2022/08/16 15:24:57;;;;;;;1.73;1.63;;;;;;;22.95;53.00;95978.00;10321567;28;20038;-29
2022/08/16 15:29:59;;;;;;;1.77;1.67;;;;;;;22.98;53.31;95972.78;10322117;28;20386;-29
2022/08/16 15:34:59;;;;;;;1.77;1.67;;;;;;;22.96;53.43;95974.56;10322692;28;20026;-29
2022/08/16 15:39:59;;;;;;;1.93;1.83;;;;;;;22.83;53.32;95972.41;10322770;28;20027;-29
2022/08/16 15:45:05;;;;;;;1.10;1.00;;;;;;;22.97;51.94;95971.13;10323430;28;20050;-29
2022/08/16 15:50:06;;;;;;;0.90;0.90;;;;;;;22.93;51.97;95974.66;10320816;28;20046;-29
2022/08/16 15:55:09;;;;;;;1.27;1.17;;;;;;;22.76;52.33;95971.75;10321675;28;20501;-28
2022/08/16 16:00:10;;;;;;;1.40;1.10;;;;;;;22.68;52.46;95963.47;10324025;28;20042;-28
2022/08/16 16:05:14;;;;;;;1.20;1.10;;;;;;;22.66;52.35;95965.22;10323252;28;20030;-29
2022/08/16 16:10:14;;;;;;;1.02;1.00;;;;;;;22.63;52.29;95959.38;10322078;28;20038;-29
2022/08/16 16:15:17;;;;;;;1.30;1.20;;;;;;;22.58;52.37;95951.84;10321240;28;20476;-28
2022/08/16 16:20:22;;;;;;;0.70;0.70;;;;;;;22.55;52.29;95951.94;10323323;28;20116;-29
2022/08/16 16:25:23;;;;;;;1.30;1.20;;;;;;;22.61;52.83;95956.03;10321534;28;20527;-29
2022/08/16 16:30:23;;;;;;;0.80;0.80;;;;;;;22.83;52.43;95967.31;10321942;28;20065;-29
2022/08/16 16:35:26;;;;;;;1.17;1.07;;;;;;;22.79;52.26;95958.91;10324279;28;20043;-29
2022/08/16 16:40:27;;;;;;;0.90;0.90;;;;;;;22.69;52.39;95961.75;10328712;28;20293;-29
2022/08/16 16:45:28;;;;;;;0.82;0.82;;;;;;;22.59;52.27;95953.53;10329730;28;20121;-28
2022/08/16 16:50:31;;;;;;;0.80;0.80;;;;;;;22.59;52.47;95958.63;10329532;28;20038;-28
2022/08/16 16:55:32;;;;;;;0.75;0.75;;;;;;;22.60;52.43;95956.91;10327442;28;20061;-29
2022/08/16 17:00:33;;;;;;;0.90;0.90;;;;;;;22.55;52.47;95941.72;10325862;28;20034;-29
2022/08/16 17:05:35;;;;;;;1.10;0.95;;;;;;;22.56;52.12;95942.56;10325393;28;20045;-29
2022/08/16 17:10:36;;;;;;;1.08;1.00;;;;;;;22.62;53.04;95933.03;10327778;28;20038;-29
2022/08/16 17:15:36;;;;;;;1.30;1.20;;;;;;;22.85;52.93;95940.00;10324448;28;20064;-30
2022/08/16 17:20:37;;;;;;;0.73;0.73;;;;;;;22.81;52.08;95946.09;10328963;28;20038;-29
2022/08/16 17:25:37;;;;;;;1.20;1.10;;;;;;;22.68;52.36;95942.22;10326771;28;20539;-29
2022/08/16 17:30:37;;;;;;;2.40;0.93;;;;;;;22.63;52.37;95944.91;10324300;28;20426;-29
2022/08/16 17:35:44;;;;;;;1.10;1.00;;;;;;;22.62;52.38;95938.13;10327526;28;20456;-29
2022/08/16 17:40:50;;;;;;;0.95;0.95;;;;;;;22.61;52.31;95939.00;10326763;28;20436;-29
2022/08/16 17:45:51;;;;;;;1.30;1.20;;;;;;;22.58;52.33;95946.72;10324357;28;20037;-29
2022/08/16 17:50:52;;;;;;;0.87;0.87;;;;;;;22.55;52.54;95944.28;10327398;28;20046;-29
2022/08/16 17:55:53;;;;;;;1.30;1.08;;;;;;;22.65;53.37;95942.31;10325559;28;20034;-29
2022/08/16 18:00:58;;;;;;;0.80;0.80;;;;;;;22.85;52.44;95943.41;10326431;28;20129;-29
2022/08/16 18:05:58;;;;;;;0.75;0.75;;;;;;;22.77;52.46;95937.69;10326994;28;20036;-29
2022/08/16 18:10:59;;;;;;;0.80;0.80;;;;;;;22.67;52.33;95951.59;10325166;28;20486;-29
2022/08/16 18:16:00;;;;;;;1.08;1.08;;;;;;;22.64;52.48;95949.13;10325854;28;20104;-29
2022/08/16 18:26:19;;;;;;;1.00;1.00;;;;;;;22.61;52.39;95949.22;10324188;28;20546;-29
2022/08/16 18:31:20;;;;;;;1.20;1.10;;;;;;;22.61;52.51;95944.13;10323823;28;20034;-29
2022/08/16 18:36:20;;;;;;;1.10;1.10;;;;;;;22.61;52.52;95945.81;10325915;28;20742;-28
2022/08/16 18:41:23;;;;;;;1.20;1.10;;;;;;;22.73;52.79;95946.31;10325949;28;20034;-29
2022/08/16 18:46:23;;;;;;;1.20;1.10;;;;;;;22.91;52.60;95958.53;10323253;28;20289;-29
2022/08/16 18:51:24;;;;;;;1.10;1.07;;;;;;;22.81;52.57;95959.69;10325792;28;20591;-30
2022/08/16 18:56:25;;;;;;;1.13;1.08;;;;;;;22.71;52.59;95962.53;10324241;28;20035;-29
2022/08/16 19:01:25;;;;;;;1.30;1.20;;;;;;;22.66;52.51;95975.44;10325177;28;20045;-30
2022/08/16 19:06:25;;;;;;;1.30;1.20;;;;;;;22.59;52.45;95958.63;10324981;28;20034;-29
2022/08/16 19:11:28;;;;;;;1.10;1.00;;;;;;;22.63;52.36;95967.88;10326639;28;20042;-29
2022/08/16 19:16:29;;;;;;;1.30;1.20;;;;;;;22.63;52.57;95975.53;10325331;28;20030;-29
2022/08/16 19:21:29;;;;;;;1.47;1.20;;;;;;;22.63;52.44;95972.97;10323831;28;20038;-29
2022/08/16 19:26:29;;;;;;;1.40;1.20;;;;;;;22.74;53.05;95988.81;10326145;28;20068;-30
2022/08/16 19:31:32;;;;;;;1.02;1.00;;;;;;;22.93;52.72;95992.53;10322265;28;20037;-29
2022/08/16 19:36:36;;;;;;;0.75;0.75;;;;;;;22.81;52.74;95995.41;10322404;28;20039;-29
2022/08/16 19:41:39;;;;;;;1.08;1.00;;;;;;;22.73;52.66;96011.84;10323687;28;20038;-29
2022/08/16 19:46:44;;;;;;;1.10;1.10;;;;;;;22.68;52.66;96013.66;10323892;28;20049;-30
2022/08/16 19:51:46;;;;;;;;;;;;;;;22.66;52.51;96023.91;10322908;28;20062;-29
2022/08/16 19:56:46;;;;;;;1.10;1.10;;;;;;;22.65;52.44;96026.53;10323632;28;19926;-31
2022/08/16 20:01:50;;;;;;;4.07;1.30;;;;;;;22.63;52.65;96020.59;10318204;28;20042;-30
2022/08/16 20:06:52;;;;;;;2.47;1.30;;;;;;;22.67;53.00;96017.94;10322084;28;20026;-30
2022/08/16 20:11:53;;;;;;;1.05;1.05;;;;;;;22.82;53.18;96026.91;10325599;28;20034;-28
2022/08/16 20:16:55;;;;;;;1.10;1.10;;;;;;;22.97;52.52;96029.84;10329804;28;20129;-30
2022/08/16 20:21:57;;;;;;;1.00;1.00;;;;;;;22.82;52.65;96037.09;10329917;28;20030;-30
2022/08/16 20:26:58;;;;;;;1.30;1.20;;;;;;;22.76;52.56;96024.50;10330489;28;20061;-31
2022/08/16 20:31:58;;;;;;;1.43;1.33;;;;;;;22.73;52.67;96022.88;10329628;28;20042;-28
2022/08/16 20:36:58;;;;;;;1.80;1.67;;;;;;;22.69;52.50;96026.41;10328744;28;20034;-29
2022/08/16 20:41:59;;;;;;;1.67;1.58;;;;;;;22.67;52.55;96027.31;10330365;28;20049;-29
2022/08/16 20:46:59;;;;;;;1.50;1.40;;;;;;;22.67;52.74;96017.09;10326882;28;20432;-29
2022/08/16 20:52:00;;;;;;;1.70;1.60;;;;;;;22.64;52.57;96012.09;10328590;28;20041;-29
2022/08/16 20:57:00;;;;;;;0.80;0.80;;;;;;;22.79;52.88;96009.94;10329656;28;20046;-29
2022/08/16 21:02:01;;;;;;;1.10;1.00;;;;;;;22.97;52.35;96027.28;10329170;28;20036;-29
2022/08/16 21:07:02;;;;;;;0.98;0.98;;;;;;;22.70;52.60;96015.31;10327080;28;20501;-29
2022/08/16 21:12:08;;;;;;;1.42;1.33;;;;;;;22.73;52.64;96027.16;10329787;28;20126;-29
2022/08/16 21:17:09;;;;;;;1.13;1.10;;;;;;;22.68;52.54;96027.28;10326514;28;20085;-29
2022/08/16 21:22:11;;;;;;;1.45;1.35;;;;;;;22.78;53.85;96027.84;10327609;28;20085;-28
2022/08/16 21:27:13;;;;;;;1.42;1.33;;;;;;;22.80;53.69;96033.72;10327510;28;20115;-28
2022/08/16 21:32:18;;;;;;;1.60;1.50;;;;;;;22.82;54.08;96032.81;10326823;28;20715;-29
2022/08/16 21:37:18;;;;;;;1.48;1.38;;;;;;;22.77;53.29;96029.56;10326903;28;20070;-30
2022/08/16 21:42:20;;;;;;;1.33;1.23;;;;;;;22.88;52.83;96037.75;10328579;28;20481;-29
2022/08/16 21:47:20;;;;;;;0.90;0.90;;;;;;;23.00;52.28;96031.47;10326016;28;20052;-28
2022/08/16 21:52:22;;;;;;;0.70;0.70;;;;;;;22.85;52.75;96029.34;10326075;28;20044;-29
2022/08/16 21:57:23;;;;;;;1.58;1.48;;;;;;;22.77;52.66;96042.34;10327344;28;20034;-29
2022/08/16 22:02:26;;;;;;;1.80;1.63;;;;;;;22.73;52.65;96032.25;10323941;28;20505;-29
2022/08/16 22:07:27;;;;;;;1.70;1.60;;;;;;;22.71;52.51;96039.94;10324747;28;20038;-29
2022/08/16 22:12:27;;;;;;;1.40;1.30;;;;;;;22.66;52.47;96039.22;10327504;28;20046;-29
2022/08/16 22:17:27;;;;;;;1.70;1.60;;;;;;;22.64;52.56;96027.41;10324210;28;20064;-30
2022/08/16 22:22:30;;;;;;;1.27;1.17;;;;;;;22.63;52.49;96033.34;10325395;28;20042;-29
2022/08/16 22:27:30;;;;;;;1.05;1.00;;;;;;;22.79;52.96;96032.91;10326064;28;20034;-29
2022/08/16 22:32:42;;;;;;;2.30;0.97;;;;;;;22.96;52.03;96034.97;10323720;28;20058;-30
2022/08/16 22:37:43;;;;;;;0.88;0.88;;;;;;;22.81;52.68;96036.25;10320716;28;20297;-29
2022/08/16 22:42:51;;;;;;;1.30;1.20;;;;;;;22.75;52.53;96031.31;10326002;28;20036;-28
2022/08/16 22:47:51;;;;;;;1.60;1.50;;;;;;;22.73;53.14;96025.41;10324538;28;20117;-29
2022/08/16 22:52:52;;;;;;;1.40;1.30;;;;;;;22.69;52.48;96030.66;10323943;28;20042;-29
2022/08/16 22:57:53;;;;;;;1.80;1.70;;;;;;;22.69;52.60;96026.41;10325001;28;20038;-29
2022/08/16 23:02:53;;;;;;;1.65;1.27;;;;;;;22.66;52.60;96018.81;10324445;28;20038;-28
2022/08/16 23:07:53;;;;;;;1.90;1.80;;;;;;;22.63;52.36;96011.25;10323130;28;21378;-28
2022/08/16 23:12:57;;;;;;;1.20;1.10;;;;;;;22.72;52.97;95999.97;10325031;28;20436;-29
2022/08/16 23:17:57;;;;;;;1.20;1.10;;;;;;;22.94;51.74;96001.84;10319642;28;20038;-29
2022/08/16 23:22:59;;;;;;;0.77;0.77;;;;;;;22.78;52.53;96000.63;10323556;28;20496;-30
2022/08/16 23:27:59;;;;;;;1.40;1.30;;;;;;;22.70;52.47;96000.00;10324140;28;20038;-30
2022/08/16 23:33:03;;;;;;;1.40;1.30;;;;;;;22.68;52.66;95993.25;10320443;28;20030;-29